createdAt,value
2023-09-06T00:01:42.910Z,4.47
2023-09-06T00:04:09.979Z,5.37
2023-09-06T00:06:37.379Z,5.40
2023-09-06T00:09:05.269Z,5.47
2023-09-06T00:11:32.458Z,5.60
2023-09-06T00:13:59.658Z,7.57
2023-09-06T00:16:26.923Z,5.97
2023-09-06T00:18:54.163Z,5.73
2023-09-06T00:21:21.233Z,6.17
2023-09-06T00:23:48.221Z,6.50
2023-09-06T00:26:15.408Z,3.90
2023-09-06T00:28:42.681Z,4.07
2023-09-06T00:31:09.732Z,4.50
2023-09-06T00:33:37.119Z,4.53
2023-09-06T00:36:05.048Z,5.37
2023-09-06T00:38:32.279Z,5.43
2023-09-06T00:40:59.549Z,4.33
2023-09-06T00:43:26.776Z,4.93
2023-09-06T00:45:54.373Z,4.10
2023-09-06T00:48:23.746Z,4.37
2023-09-06T00:50:54.661Z,3.93
2023-09-06T00:53:24.086Z,4.03
2023-09-06T00:55:51.549Z,3.80
2023-09-06T00:58:20.432Z,4.20
2023-09-06T01:00:49.773Z,4.33
2023-09-06T01:03:18.206Z,4.50
2023-09-06T01:06:22.196Z,4.33
2023-09-06T01:08:59.565Z,3.50
2023-09-06T01:11:28.485Z,3.80
2023-09-06T01:13:57.660Z,3.77
2023-09-06T01:16:37.541Z,4.77
2023-09-06T01:19:05.099Z,8.20
2023-09-06T01:21:38.206Z,4.00
2023-09-06T01:24:07.000Z,3.73
2023-09-06T01:26:35.180Z,3.53
2023-09-06T01:29:02.225Z,4.83
2023-09-06T01:31:29.416Z,3.40
2023-09-06T01:33:56.804Z,4.63
2023-09-06T01:36:23.798Z,7.33
2023-09-06T01:38:50.716Z,4.33
2023-09-06T01:41:17.892Z,4.73
2023-09-06T01:43:45.116Z,5.50
2023-09-06T01:46:12.495Z,5.50
2023-09-06T01:48:39.766Z,4.53
2023-09-06T01:51:07.001Z,4.90
2023-09-06T01:53:34.084Z,4.33
2023-09-06T01:56:01.445Z,9.33
2023-09-06T01:58:28.624Z,4.53
2023-09-06T02:00:56.118Z,5.70
2023-09-06T02:03:23.206Z,4.70
2023-09-06T02:05:50.217Z,6.20
2023-09-06T02:08:17.406Z,4.73
2023-09-06T02:10:44.556Z,5.20
2023-09-06T02:13:11.727Z,4.90
2023-09-06T02:15:38.805Z,4.33
2023-09-06T02:18:06.242Z,3.87
2023-09-06T02:20:33.298Z,4.20
2023-09-06T02:23:00.285Z,7.27
2023-09-06T02:25:32.061Z,3.93
2023-09-06T02:28:00.244Z,5.00
2023-09-06T02:30:27.514Z,4.83
2023-09-06T02:32:56.722Z,5.77
2023-09-06T02:35:23.958Z,4.40
2023-09-06T02:37:51.220Z,4.17
2023-09-06T02:40:18.304Z,4.37
2023-09-06T02:42:45.708Z,5.53
2023-09-06T02:45:12.894Z,4.83
2023-09-06T02:47:46.477Z,6.83
2023-09-06T02:50:13.423Z,4.30
2023-09-06T02:52:40.343Z,4.60
2023-09-06T02:55:07.845Z,5.17
2023-09-06T02:57:34.937Z,4.60
2023-09-06T03:00:02.511Z,7.20
2023-09-06T03:02:29.500Z,3.83
2023-09-06T03:04:56.722Z,3.90
2023-09-06T03:07:23.736Z,3.83
2023-09-06T03:09:51.127Z,4.20
2023-09-06T03:12:18.359Z,4.97
2023-09-06T03:14:45.873Z,3.90
2023-09-06T03:17:13.089Z,4.60
2023-09-06T03:19:40.018Z,3.90
2023-09-06T03:22:07.459Z,4.70
2023-09-06T03:24:34.727Z,4.33
2023-09-06T03:27:01.700Z,4.90
2023-09-06T03:29:28.629Z,5.70
2023-09-06T03:31:55.708Z,5.50
2023-09-06T03:34:22.976Z,4.83
2023-09-06T03:36:49.927Z,5.00
2023-09-06T03:39:16.912Z,4.60
2023-09-06T03:41:43.915Z,4.10
2023-09-06T03:44:11.131Z,6.80
2023-09-06T03:46:38.653Z,5.17
2023-09-06T03:49:06.064Z,4.97
2023-09-06T03:51:33.587Z,5.60
2023-09-06T03:54:00.806Z,5.07
2023-09-06T03:56:28.347Z,4.53
2023-09-06T03:58:55.556Z,5.10
2023-09-06T04:01:22.813Z,5.67
2023-09-06T04:03:50.072Z,4.50
2023-09-06T04:06:17.052Z,4.47
2023-09-06T04:08:44.103Z,5.20
2023-09-06T04:11:13.513Z,5.43
2023-09-06T04:13:41.825Z,5.10
2023-09-06T04:16:08.720Z,4.93
2023-09-06T04:18:35.738Z,6.33
2023-09-06T04:21:03.069Z,6.57
2023-09-06T04:23:30.295Z,5.63
2023-09-06T04:25:57.400Z,5.50
2023-09-06T04:28:24.448Z,4.77
2023-09-06T04:30:51.466Z,4.60
2023-09-06T04:33:18.706Z,5.00
2023-09-06T04:35:48.028Z,5.00
2023-09-06T04:38:17.546Z,5.00
2023-09-06T04:40:45.667Z,6.63
2023-09-06T04:43:17.041Z,5.00
2023-09-06T04:45:44.289Z,4.47
2023-09-06T04:48:13.307Z,3.87
2023-09-06T04:50:41.969Z,7.57
2023-09-06T04:53:10.312Z,5.47
2023-09-06T04:55:37.727Z,4.57
2023-09-06T04:58:09.873Z,6.20
2023-09-06T05:00:39.338Z,4.70
2023-09-06T05:03:07.297Z,5.47
2023-09-06T05:05:34.640Z,5.33
2023-09-06T05:08:01.635Z,5.50
2023-09-06T05:10:28.621Z,5.33
2023-09-06T05:12:55.601Z,7.60
2023-09-06T05:15:22.772Z,5.30
2023-09-06T05:17:49.745Z,6.93
2023-09-06T05:20:25.649Z,4.70
2023-09-06T05:22:52.899Z,8.67
2023-09-06T05:25:20.002Z,5.80
2023-09-06T05:27:47.257Z,6.20
2023-09-06T05:30:14.570Z,9.00
2023-09-06T05:32:41.861Z,5.67
2023-09-06T05:35:09.622Z,7.70
2023-09-06T05:37:38.404Z,9.87
2023-09-06T05:40:06.903Z,8.43
2023-09-06T05:42:34.088Z,6.70
2023-09-06T05:45:01.104Z,7.30
2023-09-06T05:47:28.158Z,6.83
2023-09-06T05:49:55.253Z,6.60
2023-09-06T05:52:23.431Z,7.47
2023-09-06T05:54:51.020Z,7.50
2023-09-06T05:57:18.817Z,7.87
2023-09-06T05:59:45.916Z,8.30
2023-09-06T06:02:13.107Z,7.20
2023-09-06T06:04:40.166Z,7.47
2023-09-06T06:07:07.156Z,8.70
2023-09-06T06:09:34.148Z,7.83
2023-09-06T06:12:01.070Z,6.20
2023-09-06T06:14:28.059Z,6.43
2023-09-06T06:16:55.125Z,6.90
2023-09-06T06:19:22.386Z,9.13
2023-09-06T06:21:49.370Z,8.07
2023-09-06T06:24:16.510Z,7.75
2023-09-06T06:26:43.498Z,7.88
2023-09-06T06:29:10.795Z,8.13
2023-09-06T06:31:38.055Z,7.63
2023-09-06T06:34:05.179Z,9.30
2023-09-06T06:36:35.255Z,7.30
2023-09-06T06:39:02.569Z,6.32
2023-09-06T06:41:29.790Z,6.25
2023-09-06T06:43:57.718Z,7.15
2023-09-06T06:46:33.390Z,7.63
2023-09-06T06:49:01.209Z,7.65
2023-09-06T06:51:29.462Z,6.97
2023-09-06T06:53:56.527Z,6.43
2023-09-06T06:56:23.788Z,6.35
2023-09-06T06:58:52.292Z,6.25
2023-09-06T07:01:21.372Z,5.05
2023-09-06T07:03:48.484Z,5.70
2023-09-06T07:06:15.520Z,6.43
2023-09-06T07:08:44.574Z,5.63
2023-09-06T07:11:13.670Z,5.53
2023-09-06T07:13:41.907Z,6.50
2023-09-06T07:16:10.891Z,5.55
2023-09-06T07:18:37.933Z,5.00
2023-09-06T07:21:05.225Z,5.63
2023-09-06T07:23:32.499Z,6.45
2023-09-06T07:25:59.862Z,4.50
2023-09-06T07:28:27.216Z,5.25
2023-09-06T07:30:54.540Z,4.50
2023-09-06T07:33:21.798Z,4.88
2023-09-06T07:35:49.450Z,4.70
2023-09-06T07:38:16.603Z,5.00
2023-09-06T07:40:43.664Z,4.57
2023-09-06T07:43:12.266Z,5.93
2023-09-06T07:45:39.279Z,6.18
2023-09-06T07:48:06.439Z,6.30
2023-09-06T07:50:33.780Z,4.25
2023-09-06T07:53:00.998Z,5.53
2023-09-06T07:55:28.258Z,3.80
2023-09-06T07:57:55.856Z,7.47
2023-09-06T08:00:23.140Z,5.05
2023-09-06T08:02:50.574Z,4.32
2023-09-06T08:05:17.881Z,5.40
2023-09-06T08:07:45.169Z,5.60
2023-09-06T08:10:12.435Z,4.45
2023-09-06T08:12:39.683Z,5.40
2023-09-06T08:15:07.372Z,5.05
2023-09-06T08:17:34.470Z,5.00
2023-09-06T08:20:01.740Z,5.60
2023-09-06T08:22:42.678Z,7.53
2023-09-06T08:25:12.241Z,4.57
2023-09-06T10:14:03.263Z,3.50
2023-09-06T10:16:31.298Z,4.38
2023-09-06T10:18:59.372Z,4.03
2023-09-06T10:21:27.996Z,4.80
2023-09-06T10:23:55.690Z,3.60
2023-09-06T10:26:27.233Z,3.55
2023-09-06T10:28:58.274Z,3.38
2023-09-06T10:31:34.813Z,3.30
2023-09-06T10:34:01.891Z,6.78
2023-09-06T10:36:28.970Z,4.07
2023-09-06T10:38:56.213Z,4.63
2023-09-06T10:41:24.288Z,3.35
2023-09-06T10:44:00.268Z,6.95
2023-09-06T10:46:29.031Z,4.13
2023-09-06T10:49:15.231Z,3.50
2023-09-06T10:51:59.434Z,3.20
2023-09-06T10:54:33.546Z,2.97
2023-09-06T10:57:03.701Z,3.22
2023-09-06T10:59:32.651Z,3.72
2023-09-06T11:02:25.633Z,3.45
2023-09-06T11:05:16.798Z,3.38
2023-09-06T11:10:22.496Z,3.30
2023-09-06T11:12:49.790Z,3.10
2023-09-06T11:15:16.839Z,4.13
2023-09-06T11:17:46.619Z,3.13
2023-09-06T11:20:15.923Z,4.17
2023-09-06T11:22:50.709Z,4.18
2023-09-06T11:25:22.518Z,3.30
2023-09-06T11:27:51.523Z,3.85
2023-09-06T11:30:20.052Z,3.22
2023-09-06T11:32:47.180Z,3.72
2023-09-06T11:35:14.785Z,3.67
2023-09-06T11:37:45.926Z,3.92
2023-09-06T11:40:13.063Z,4.67
2023-09-06T11:42:42.116Z,3.10
2023-09-06T11:45:10.188Z,3.30
2023-09-06T11:47:37.345Z,3.65
2023-09-06T11:50:05.326Z,3.63
2023-09-06T11:52:36.594Z,4.00
2023-09-06T11:55:11.537Z,6.88
2023-09-06T11:57:39.637Z,4.53
2023-09-06T12:00:10.153Z,3.47
2023-09-06T12:02:37.226Z,4.00
2023-09-06T12:05:04.566Z,4.30
2023-09-06T12:07:32.273Z,4.50
2023-09-06T12:10:01.285Z,5.53
2023-09-06T12:12:28.341Z,4.67
2023-09-06T12:14:57.615Z,5.70
2023-09-06T12:17:24.707Z,4.30
2023-09-06T12:19:58.867Z,5.03
2023-09-06T12:22:25.885Z,5.88
2023-09-06T12:24:52.836Z,3.23
2023-09-06T12:27:20.056Z,3.90
2023-09-06T12:29:47.237Z,3.30
2023-09-06T12:32:14.508Z,4.22
2023-09-06T12:34:41.756Z,3.50
2023-09-06T12:37:08.790Z,5.13
2023-09-06T12:39:35.783Z,3.30
2023-09-06T12:42:02.878Z,3.55
2023-09-06T12:44:29.971Z,4.00
2023-09-06T12:46:57.022Z,3.88
2023-09-06T12:49:24.036Z,2.90
2023-09-06T12:51:51.044Z,2.80
2023-09-06T12:54:18.287Z,3.00
2023-09-06T12:56:45.524Z,4.40
2023-09-06T12:59:12.566Z,2.95
2023-09-06T13:01:41.623Z,3.55
2023-09-06T13:04:10.981Z,3.78
2023-09-06T13:06:38.330Z,9.40
2023-09-06T13:09:05.677Z,5.03
2023-09-06T13:11:33.106Z,3.42
2023-09-06T13:14:01.511Z,2.88
2023-09-06T13:16:28.741Z,4.15
2023-09-06T13:18:56.100Z,3.05
2023-09-06T13:21:23.257Z,3.35
2023-09-06T13:23:50.523Z,4.20
2023-09-06T13:26:17.655Z,3.28
2023-09-06T13:28:44.727Z,4.15
2023-09-06T13:31:11.886Z,2.97
2023-09-06T13:33:39.375Z,4.30
2023-09-06T13:36:07.036Z,3.13
2023-09-06T13:38:34.218Z,3.45
2023-09-06T13:41:01.368Z,2.97
2023-09-06T13:43:28.824Z,3.08
2023-09-06T13:45:56.130Z,2.97
2023-09-06T13:48:23.456Z,3.20
2023-09-06T13:50:50.723Z,3.50
2023-09-06T13:53:17.997Z,3.65
2023-09-06T13:55:45.281Z,3.28
2023-09-06T13:58:13.691Z,3.83
2023-09-06T14:00:40.662Z,5.00
2023-09-06T14:03:07.826Z,4.32
2023-09-06T14:05:35.088Z,4.88
2023-09-06T14:08:02.148Z,3.85
2023-09-06T14:10:29.403Z,5.13
2023-09-06T14:12:56.426Z,3.55
2023-09-06T14:15:23.772Z,7.38
2023-09-06T14:17:52.145Z,4.88
2023-09-06T14:20:19.238Z,5.85
2023-09-06T14:22:46.502Z,4.75
2023-09-06T14:25:13.963Z,3.95
2023-09-06T14:27:40.985Z,5.07
2023-09-06T14:30:08.834Z,5.68
2023-09-06T14:32:36.217Z,3.30
2023-09-06T14:35:03.638Z,5.88
2023-09-06T14:37:30.606Z,3.20
2023-09-06T14:39:57.894Z,5.97
2023-09-06T14:42:24.985Z,3.28
2023-09-06T14:44:52.017Z,4.20
2023-09-06T14:47:19.260Z,4.70
2023-09-06T14:49:46.365Z,3.08
2023-09-06T14:52:13.438Z,3.40
2023-09-06T14:54:40.458Z,4.03
2023-09-06T14:57:07.752Z,3.78
2023-09-06T14:59:34.811Z,4.80
2023-09-06T15:02:01.872Z,3.80
2023-09-06T15:04:28.989Z,3.17
2023-09-06T15:07:00.209Z,4.22
2023-09-06T15:09:28.357Z,5.03
2023-09-06T15:11:56.064Z,2.85
2023-09-06T15:14:23.306Z,3.25
2023-09-06T15:16:50.692Z,5.97
2023-09-06T15:19:18.027Z,5.10
2023-09-06T15:21:45.320Z,2.65
2023-09-06T15:24:12.589Z,2.70
2023-09-06T15:26:42.855Z,3.63
2023-09-06T15:29:10.101Z,4.30
2023-09-06T15:31:37.143Z,4.55
2023-09-06T15:34:04.419Z,2.75
2023-09-06T15:36:32.085Z,4.47
2023-09-06T15:38:59.411Z,3.00
2023-09-06T15:41:26.474Z,4.10
2023-09-06T15:43:53.474Z,4.20
2023-09-06T15:46:20.552Z,3.75
2023-09-06T15:48:47.786Z,4.55
2023-09-06T15:51:14.903Z,3.30
2023-09-06T15:53:41.979Z,5.25
2023-09-06T15:56:09.239Z,3.63
2023-09-06T15:58:36.483Z,3.45
2023-09-06T16:01:04.150Z,3.70
2023-09-06T16:03:32.416Z,3.47
2023-09-06T16:05:59.568Z,5.00
2023-09-06T16:08:26.726Z,3.72
2023-09-06T16:10:53.867Z,3.58
2023-09-06T16:13:21.116Z,5.03
2023-09-06T16:15:48.313Z,5.78
2023-09-06T16:18:15.595Z,4.35
2023-09-06T16:20:43.449Z,3.90
2023-09-06T16:23:11.565Z,3.95
2023-09-06T16:25:38.797Z,5.70
2023-09-06T16:28:05.843Z,3.75
2023-09-06T16:30:35.798Z,4.28
2023-09-06T16:33:03.811Z,4.88
2023-09-06T16:35:30.961Z,4.22
2023-09-06T16:37:58.417Z,3.70
2023-09-06T16:40:25.716Z,3.70
2023-09-06T16:42:52.821Z,4.35
2023-09-06T16:45:20.589Z,4.20
2023-09-06T16:47:50.497Z,5.18
2023-09-06T16:50:18.806Z,5.68
2023-09-06T16:52:45.908Z,4.75
2023-09-06T16:55:13.218Z,4.75
2023-09-06T16:57:40.503Z,3.70
2023-09-06T17:00:08.292Z,4.32
2023-09-06T17:02:36.061Z,4.38
2023-09-06T17:05:03.126Z,3.50
2023-09-06T17:07:30.375Z,6.32
2023-09-06T17:09:57.662Z,5.53
2023-09-06T17:12:24.736Z,6.25
2023-09-06T17:14:51.970Z,4.35
2023-09-06T17:17:19.742Z,5.13
2023-09-06T17:19:47.037Z,4.40
2023-09-06T17:22:14.140Z,5.47
2023-09-06T17:24:41.357Z,5.72
2023-09-06T17:27:08.393Z,6.93
2023-09-06T17:29:35.645Z,7.20
2023-09-06T17:32:02.885Z,4.85
2023-09-06T17:34:30.259Z,5.60
2023-09-06T17:36:57.525Z,6.53
2023-09-06T17:39:24.761Z,4.93
2023-09-06T17:41:51.784Z,5.60
2023-09-06T17:44:19.284Z,4.82
2023-09-06T17:46:46.413Z,5.63
2023-09-06T17:49:13.718Z,5.82
2023-09-06T17:51:40.848Z,4.40
2023-09-06T17:54:07.866Z,6.40
2023-09-06T17:56:34.912Z,5.43
2023-09-06T17:59:02.103Z,8.05
2023-09-06T18:01:29.136Z,4.65
2023-09-06T18:03:56.730Z,6.80
2023-09-06T18:06:24.967Z,5.50
2023-09-06T18:08:52.593Z,5.25
2023-09-06T18:11:19.694Z,4.32
2023-09-06T18:13:46.688Z,7.20
2023-09-06T18:16:15.300Z,4.70
2023-09-06T18:18:43.171Z,8.15
2023-09-06T18:21:11.871Z,5.40
2023-09-06T18:23:39.905Z,6.70
2023-09-06T18:26:07.793Z,8.02
2023-09-06T18:28:35.092Z,4.60
2023-09-06T18:31:02.786Z,8.02
2023-09-06T18:33:30.038Z,5.85
2023-09-06T18:35:57.069Z,6.65
2023-09-06T18:38:25.233Z,8.30
2023-09-06T18:40:56.270Z,7.70
2023-09-06T18:43:24.771Z,6.32
2023-09-06T18:45:51.945Z,7.88
2023-09-06T18:48:22.032Z,6.03
2023-09-06T18:50:50.543Z,8.23
2023-09-06T18:53:17.762Z,5.68
2023-09-06T18:55:48.266Z,8.82
2023-09-06T18:58:16.815Z,6.47
2023-09-06T19:00:44.109Z,5.82
2023-09-06T19:03:11.216Z,5.63
2023-09-06T19:05:38.856Z,5.65
2023-09-06T19:08:06.632Z,6.68
2023-09-06T19:10:33.926Z,5.15
2023-09-06T19:13:03.867Z,5.43
2023-09-06T19:15:30.897Z,5.13
2023-09-06T19:17:58.122Z,5.43
2023-09-06T19:20:25.734Z,5.43
2023-09-06T19:22:52.843Z,5.45
2023-09-06T19:25:20.944Z,5.80
2023-09-06T19:27:48.248Z,5.90
2023-09-06T19:30:15.459Z,6.47
2023-09-06T19:32:43.102Z,7.70
2023-09-06T19:35:11.878Z,6.97
2023-09-06T19:37:40.013Z,6.82
2023-09-06T19:40:09.134Z,6.45
2023-09-06T19:42:36.428Z,8.80
2023-09-06T19:45:03.780Z,7.93
2023-09-06T19:47:33.764Z,7.38
2023-09-06T19:50:01.663Z,7.63
2023-09-06T19:52:29.836Z,7.18
2023-09-06T19:55:01.944Z,8.32
2023-09-06T19:57:30.716Z,8.13
2023-09-06T19:59:59.822Z,6.38
2023-09-06T20:02:27.287Z,6.78
2023-09-06T20:04:55.549Z,6.68
2023-09-06T20:07:22.643Z,7.18
2023-09-06T20:09:49.856Z,6.70
2023-09-06T20:12:16.837Z,7.05
2023-09-06T20:14:44.082Z,9.95
2023-09-06T20:17:11.307Z,7.40
2023-09-06T20:19:38.551Z,7.63
2023-09-06T20:22:05.612Z,7.95
2023-09-06T20:24:32.640Z,7.90
2023-09-06T20:26:59.922Z,9.18
2023-09-06T20:29:28.659Z,10.10
2023-09-06T20:31:57.541Z,7.28
2023-09-06T20:34:24.956Z,8.80
2023-09-06T20:36:52.117Z,8.45
2023-09-06T20:39:19.016Z,7.32
2023-09-06T20:41:46.016Z,8.45
2023-09-06T20:44:12.984Z,9.60
2023-09-06T20:46:40.182Z,7.25
2023-09-06T20:49:07.484Z,7.10
2023-09-06T20:51:34.727Z,7.17
2023-09-06T20:54:01.705Z,7.25
2023-09-06T20:56:28.735Z,8.82
2023-09-06T20:58:55.713Z,7.57
2023-09-06T21:01:23.018Z,7.75
2023-09-06T21:03:50.134Z,7.63
2023-09-06T21:06:17.379Z,9.70
2023-09-06T21:08:44.807Z,8.32
2023-09-06T21:11:11.967Z,8.15
2023-09-06T21:13:39.272Z,9.45
2023-09-06T21:16:06.645Z,8.27
2023-09-06T21:18:34.153Z,8.30
2023-09-06T21:21:01.484Z,10.45
2023-09-06T21:23:28.489Z,8.80
2023-09-06T21:25:55.537Z,7.13
2023-09-06T21:28:22.576Z,8.10
2023-09-06T21:30:49.517Z,7.28
2023-09-06T21:33:16.709Z,9.68
2023-09-06T21:35:45.412Z,7.40
2023-09-06T21:38:13.142Z,8.60
2023-09-06T21:40:45.278Z,8.32
2023-09-06T21:43:19.073Z,9.13
2023-09-06T21:45:47.462Z,7.68
2023-09-06T21:48:25.887Z,8.30
2023-09-06T21:51:06.058Z,8.30
2023-09-06T21:53:33.283Z,9.10
2023-09-06T21:56:00.499Z,8.07
2023-09-06T21:58:27.467Z,7.90
2023-09-06T22:00:54.679Z,8.93
2023-09-06T22:03:21.826Z,8.52
2023-09-06T22:05:49.561Z,7.60
2023-09-06T22:08:16.768Z,8.33
2023-09-06T22:10:43.719Z,7.27
2023-09-06T22:13:10.823Z,8.23
2023-09-06T22:15:37.833Z,8.70
2023-09-06T22:18:04.997Z,8.20
2023-09-06T22:20:31.960Z,9.17
2023-09-06T22:22:58.950Z,11.07
2023-09-06T22:25:26.256Z,11.18
2023-09-06T22:27:53.335Z,8.47
2023-09-06T22:30:20.389Z,8.90
2023-09-06T22:32:47.335Z,9.43
2023-09-06T22:35:14.546Z,9.90
2023-09-06T22:37:42.991Z,9.15
2023-09-06T22:40:10.458Z,9.63
2023-09-06T22:42:37.475Z,8.80
2023-09-06T22:45:05.174Z,10.93
2023-09-06T22:47:32.476Z,9.23
2023-09-06T22:49:59.860Z,9.30
2023-09-06T22:52:26.959Z,8.95
2023-09-06T22:54:54.070Z,10.57
2023-09-06T22:57:21.078Z,11.32
2023-09-06T22:59:48.046Z,8.32
2023-09-06T23:02:15.230Z,8.75
2023-09-06T23:04:42.462Z,9.13
2023-09-06T23:07:09.474Z,9.43
2023-09-06T23:09:36.410Z,10.00
2023-09-06T23:12:03.771Z,9.60
2023-09-06T23:14:30.986Z,8.87
2023-09-06T23:16:58.303Z,10.23
2023-09-06T23:19:25.667Z,10.37
2023-09-06T23:21:53.740Z,9.80
2023-09-06T23:24:20.936Z,9.83
2023-09-06T23:26:47.843Z,9.73
2023-09-06T23:29:15.656Z,9.80
2023-09-06T23:31:43.901Z,9.27
2023-09-06T23:34:11.416Z,10.57
2023-09-06T23:36:38.749Z,10.10
2023-09-06T23:39:05.697Z,10.17
2023-09-06T23:41:33.142Z,8.20
2023-09-06T23:44:00.335Z,10.47
2023-09-06T23:46:27.578Z,11.03
2023-09-06T23:48:55.006Z,9.40
2023-09-06T23:51:22.251Z,8.83
2023-09-06T23:53:49.227Z,10.50
2023-09-06T23:56:16.451Z,8.83
2023-09-06T23:58:43.746Z,9.93
